createdAt,value
2023-03-26T00:00:21.749Z,3.53
2023-03-26T00:02:52.176Z,2.90
2023-03-26T00:05:22.856Z,2.40
2023-03-26T00:07:55.313Z,2.83
2023-03-26T00:10:25.621Z,2.70
2023-03-26T00:12:55.465Z,2.70
2023-03-26T00:15:26.803Z,3.10
2023-03-26T00:17:57.045Z,2.60
2023-03-26T00:20:27.725Z,3.03
2023-03-26T00:23:01.687Z,3.30
2023-03-26T00:25:32.227Z,2.83
2023-03-26T00:28:02.014Z,3.07
2023-03-26T00:30:31.877Z,2.63
2023-03-26T00:33:01.685Z,2.80
2023-03-26T00:35:31.833Z,3.60
2023-03-26T00:38:05.787Z,2.50
2023-03-26T00:40:37.164Z,2.70
2023-03-26T00:43:19.083Z,2.57
2023-03-26T00:45:49.818Z,2.97
2023-03-26T00:48:21.684Z,3.40
2023-03-26T00:50:56.438Z,3.40
2023-03-26T00:53:29.012Z,3.10
2023-03-26T00:56:00.642Z,3.40
2023-03-26T00:58:31.940Z,3.10
2023-03-26T01:01:04.596Z,2.80
2023-03-26T01:03:38.458Z,2.60
2023-03-26T01:06:11.492Z,2.73
2023-03-26T01:08:46.894Z,2.70
2023-03-26T01:11:19.300Z,2.70
2023-03-26T01:13:52.540Z,2.50
2023-03-26T01:16:29.102Z,2.83
2023-03-26T01:19:00.681Z,2.73
2023-03-26T01:21:34.689Z,2.63
2023-03-26T01:24:09.103Z,2.50
2023-03-26T01:27:01.736Z,2.57
2023-03-26T01:29:36.908Z,3.43
2023-03-26T01:32:16.365Z,2.20
2023-03-26T01:35:01.303Z,2.67
2023-03-26T01:37:39.394Z,2.60
2023-03-26T01:40:22.026Z,2.70
2023-03-26T01:42:59.452Z,2.37
2023-03-26T01:45:33.350Z,2.60
2023-03-26T01:48:03.592Z,2.43
2023-03-26T01:50:33.425Z,2.57
2023-03-26T01:53:06.076Z,2.47
2023-03-26T01:55:49.758Z,2.67
2023-03-26T01:58:30.455Z,2.20
2023-03-26T02:01:12.854Z,2.10
2023-03-26T02:03:50.202Z,2.13
2023-03-26T02:06:25.993Z,2.30
2023-03-26T02:08:59.081Z,2.30
2023-03-26T02:11:35.500Z,2.40
2023-03-26T02:14:07.554Z,2.50
2023-03-26T02:16:37.532Z,2.83
2023-03-26T02:19:16.185Z,2.60
2023-03-26T02:21:47.035Z,2.20
2023-03-26T02:24:16.932Z,2.47
2023-03-26T02:26:49.376Z,2.57
2023-03-26T02:29:20.720Z,2.80
2023-03-26T02:31:51.197Z,2.53
2023-03-26T02:34:21.165Z,2.50
2023-03-26T02:36:51.179Z,2.70
2023-03-26T02:39:21.103Z,1.90
2023-03-26T02:41:54.663Z,2.37
2023-03-26T02:44:24.473Z,2.20
2023-03-26T02:46:55.048Z,2.07
2023-03-26T02:49:24.869Z,3.10
2023-03-26T02:51:56.462Z,2.67
2023-03-26T02:54:26.400Z,3.57
2023-03-26T02:57:01.068Z,2.97
2023-03-26T02:59:31.003Z,3.00
2023-03-26T03:02:00.801Z,3.10
2023-03-26T03:04:30.597Z,2.40
2023-03-26T03:07:01.158Z,3.30
2023-03-26T03:09:30.939Z,2.60
2023-03-26T03:12:03.315Z,2.17
2023-03-26T03:14:33.086Z,2.27
2023-03-26T03:17:02.940Z,2.53
2023-03-26T03:19:32.750Z,2.27
2023-03-26T03:22:04.193Z,2.70
2023-03-26T03:24:34.203Z,3.00
2023-03-26T03:27:06.794Z,3.30
2023-03-26T03:29:36.579Z,3.00
2023-03-26T03:32:06.478Z,2.47
2023-03-26T03:34:38.887Z,3.00
2023-03-26T03:37:08.708Z,2.50
2023-03-26T03:39:38.512Z,2.80
2023-03-26T03:42:11.794Z,2.50
2023-03-26T03:44:41.623Z,2.67
2023-03-26T03:47:13.902Z,2.10
2023-03-26T03:49:43.707Z,3.30
2023-03-26T03:52:13.525Z,2.77
2023-03-26T03:54:43.347Z,2.60
2023-03-26T03:57:16.313Z,2.43
2023-03-26T03:59:48.434Z,2.60
2023-03-26T04:02:31.751Z,3.37
2023-03-26T04:05:01.588Z,2.57
2023-03-26T04:07:33.575Z,2.70
2023-03-26T04:10:04.721Z,2.87
2023-03-26T04:12:39.542Z,2.23
2023-03-26T04:15:10.393Z,2.90
2023-03-26T04:17:45.510Z,2.40
2023-03-26T04:20:16.335Z,3.57
2023-03-26T04:22:47.717Z,3.00
2023-03-26T04:25:17.925Z,2.83
2023-03-26T04:27:51.312Z,2.93
2023-03-26T04:30:23.471Z,3.20
2023-03-26T04:32:53.316Z,2.33
2023-03-26T04:35:23.937Z,2.97
2023-03-26T04:37:54.688Z,2.67
2023-03-26T04:40:25.277Z,2.60
2023-03-26T04:43:04.034Z,2.80
2023-03-26T04:45:33.806Z,2.60
2023-03-26T04:48:03.726Z,2.20
2023-03-26T04:50:33.561Z,2.47
2023-03-26T04:53:03.424Z,2.70
2023-03-26T04:55:38.821Z,2.57
2023-03-26T04:58:14.192Z,2.73
2023-03-26T05:00:44.354Z,2.90
2023-03-26T05:03:16.580Z,3.00
2023-03-26T05:05:46.813Z,2.73
2023-03-26T05:08:16.577Z,3.27
2023-03-26T05:10:46.348Z,3.20
2023-03-26T05:13:18.729Z,2.93
2023-03-26T05:15:48.500Z,2.33
2023-03-26T05:18:18.660Z,2.57
2023-03-26T05:20:48.509Z,3.07
2023-03-26T05:23:18.332Z,3.23
2023-03-26T05:25:48.128Z,2.93
2023-03-26T05:28:24.531Z,2.80
2023-03-26T05:30:56.187Z,2.70
2023-03-26T05:33:26.459Z,3.03
2023-03-26T05:36:02.519Z,2.87
2023-03-26T05:38:33.071Z,3.97
2023-03-26T05:41:08.570Z,2.30
2023-03-26T05:43:41.094Z,2.80
2023-03-26T05:46:11.056Z,3.67
2023-03-26T05:48:41.050Z,2.90
2023-03-26T05:51:12.509Z,3.23
2023-03-26T05:53:42.396Z,2.83
2023-03-26T05:56:13.035Z,2.87
2023-03-26T05:58:45.505Z,2.93
2023-03-26T06:01:19.846Z,2.40
2023-03-26T06:03:53.207Z,2.40
2023-03-26T06:06:24.270Z,2.70
2023-03-26T06:09:00.928Z,2.33
2023-03-26T06:11:32.815Z,2.33
2023-03-26T06:14:06.081Z,2.37
2023-03-26T06:16:36.128Z,3.03
2023-03-26T06:19:06.022Z,2.20
2023-03-26T06:21:35.834Z,2.73
2023-03-26T06:24:05.630Z,3.17
2023-03-26T06:26:36.008Z,2.40
2023-03-26T06:29:08.825Z,3.23
2023-03-26T06:31:38.670Z,2.93
2023-03-26T06:34:08.604Z,3.03
2023-03-26T06:36:38.430Z,2.43
2023-03-26T06:39:08.283Z,2.87
2023-03-26T06:41:38.869Z,2.33
2023-03-26T06:46:56.519Z,3.03
2023-03-26T06:49:26.349Z,2.50
2023-03-26T06:51:56.345Z,3.07
2023-03-26T06:54:27.753Z,3.20
2023-03-26T06:56:59.280Z,3.00
2023-03-26T06:59:29.209Z,3.03
2023-03-26T07:02:01.593Z,2.57
2023-03-26T07:04:31.519Z,3.23
2023-03-26T07:07:01.441Z,3.73
2023-03-26T07:09:32.146Z,3.10
2023-03-26T07:12:02.230Z,3.57
2023-03-26T07:14:32.931Z,3.37
2023-03-26T07:17:06.234Z,3.13
2023-03-26T07:19:37.694Z,2.90
2023-03-26T07:22:08.796Z,2.67
2023-03-26T07:24:39.650Z,2.17
2023-03-26T07:27:39.401Z,2.50
2023-03-26T07:30:15.764Z,2.47
2023-03-26T07:32:56.473Z,2.73
2023-03-26T07:35:33.523Z,2.70
2023-03-26T07:38:16.641Z,2.67
2023-03-26T07:41:00.463Z,2.70
2023-03-26T07:43:48.741Z,3.10
2023-03-26T07:46:20.301Z,3.73
2023-03-26T07:48:55.297Z,3.03
2023-03-26T07:51:25.765Z,2.93
2023-03-26T07:53:56.543Z,2.57
2023-03-26T07:56:34.269Z,5.50
2023-03-26T07:59:17.083Z,3.47
2023-03-26T08:02:01.587Z,3.03
2023-03-26T08:04:49.463Z,2.50
2023-03-26T08:07:30.154Z,3.27
2023-03-26T08:10:11.279Z,3.10
2023-03-26T08:12:51.559Z,2.77
2023-03-26T08:15:29.522Z,2.70
2023-03-26T08:18:08.001Z,2.63
2023-03-26T08:20:48.531Z,2.97
2023-03-26T08:23:27.911Z,2.77
2023-03-26T08:26:04.632Z,2.30
2023-03-26T08:28:56.601Z,2.20
2023-03-26T08:31:36.017Z,2.50
2023-03-26T08:34:06.451Z,2.90
2023-03-26T08:36:39.113Z,2.80
2023-03-26T08:39:10.025Z,2.83
2023-03-26T08:41:59.482Z,2.20
2023-03-26T08:44:59.102Z,2.33
2023-03-26T08:48:18.041Z,3.23
2023-03-26T08:51:07.953Z,3.10
2023-03-26T08:54:13.943Z,2.40
2023-03-26T08:56:54.837Z,2.23
2023-03-26T08:59:53.647Z,2.33
2023-03-26T09:02:53.162Z,2.50
2023-03-26T09:05:58.292Z,2.30
2023-03-26T09:09:07.597Z,2.43
2023-03-26T09:12:18.557Z,2.27
2023-03-26T09:15:30.130Z,2.23
2023-03-26T09:18:27.566Z,2.30
2023-03-26T09:21:25.751Z,2.53
2023-03-26T09:24:23.152Z,3.20
2023-03-26T09:27:05.104Z,2.30
2023-03-26T09:30:14.863Z,3.00
2023-03-26T09:33:12.727Z,3.00
2023-03-26T09:35:57.409Z,2.67
2023-03-26T09:38:48.156Z,2.57
2023-03-26T09:41:20.929Z,2.60
2023-03-26T09:44:42.698Z,2.10
2023-03-26T09:47:37.016Z,2.60
2023-03-26T09:50:26.963Z,2.80
2023-03-26T09:53:09.472Z,3.03
2023-03-26T09:55:55.247Z,2.63
2023-03-26T10:01:19.687Z,1.90
2023-03-26T10:04:01.241Z,2.13
2023-03-26T10:06:52.118Z,2.73
2023-03-26T10:09:48.684Z,2.20
2023-03-26T10:12:27.866Z,2.57
2023-03-26T10:15:09.272Z,2.23
2023-03-26T10:17:49.543Z,2.63
2023-03-26T10:20:32.452Z,2.43
2023-03-26T10:23:16.101Z,2.60
2023-03-26T10:26:04.632Z,2.30
2023-03-26T10:28:57.008Z,2.80
2023-03-26T10:31:45.636Z,2.57
2023-03-26T10:34:34.640Z,2.13
2023-03-26T10:37:13.063Z,2.20
2023-03-26T10:40:24.608Z,1.73
2023-03-26T10:43:27.513Z,2.50
2023-03-26T10:46:20.738Z,2.30
2023-03-26T10:49:06.889Z,2.10
2023-03-26T10:51:45.201Z,2.30
2023-03-26T10:54:21.927Z,2.33
2023-03-26T10:56:54.076Z,2.23
2023-03-26T10:59:29.454Z,2.03
2023-03-26T11:02:08.876Z,2.23
2023-03-26T11:04:52.448Z,2.50
2023-03-26T11:07:29.845Z,2.47
2023-03-26T11:10:08.761Z,1.90
2023-03-26T11:12:46.758Z,1.90
2023-03-26T11:15:30.125Z,2.33
2023-03-26T11:18:14.283Z,2.80
2023-03-26T11:20:51.183Z,1.80
2023-03-26T11:23:38.681Z,1.73
2023-03-26T11:26:13.500Z,2.00
2023-03-26T11:29:31.224Z,2.30
2023-03-26T11:32:04.731Z,2.23
2023-03-26T11:34:40.081Z,2.00
2023-03-26T11:37:16.265Z,2.03
2023-03-26T11:39:55.887Z,2.10
2023-03-26T11:42:27.806Z,2.33
2023-03-26T11:45:00.354Z,2.30
2023-03-26T11:47:41.937Z,2.57
2023-03-26T11:50:20.176Z,2.30
2023-03-26T11:52:50.214Z,2.73
2023-03-26T11:55:20.156Z,2.00
2023-03-26T11:57:56.510Z,2.60
2023-03-26T12:00:28.384Z,2.30
2023-03-26T12:03:03.301Z,2.53
2023-03-26T12:05:36.885Z,2.47
2023-03-26T12:08:21.641Z,2.20
2023-03-26T12:11:01.878Z,2.10
2023-03-26T12:13:38.000Z,2.23
2023-03-26T12:16:19.390Z,2.00
2023-03-26T12:19:03.762Z,2.00
2023-03-26T12:21:33.608Z,2.13
2023-03-26T12:24:05.521Z,2.20
2023-03-26T12:26:45.146Z,1.73
2023-03-26T12:29:16.846Z,2.30
2023-03-26T12:31:55.955Z,1.87
2023-03-26T12:34:34.975Z,2.07
2023-03-26T12:37:06.236Z,1.60
2023-03-26T12:40:07.521Z,1.90
2023-03-26T12:44:45.243Z,2.27
2023-03-26T12:45:25.957Z,2.10
2023-03-26T12:48:02.482Z,2.33
2023-03-26T12:50:57.714Z,2.03
2023-03-26T12:53:50.482Z,2.07
2023-03-26T12:56:24.575Z,1.93
2023-03-26T12:59:08.993Z,2.10
2023-03-26T13:01:53.363Z,1.70
2023-03-26T13:05:04.961Z,2.10
2023-03-26T13:07:53.737Z,2.20
2023-03-26T13:10:44.203Z,2.07
2023-03-26T13:13:33.539Z,2.13
2023-03-26T13:16:10.764Z,2.50
2023-03-26T13:18:55.770Z,2.47
2023-03-26T13:21:36.135Z,2.20
2023-03-26T13:24:15.598Z,2.53
2023-03-26T13:27:03.306Z,1.90
2023-03-26T13:29:43.695Z,2.33
2023-03-26T13:32:21.829Z,2.40
2023-03-26T13:35:07.540Z,2.77
2023-03-26T13:37:45.851Z,2.23
2023-03-26T13:40:28.454Z,2.83
2023-03-26T13:43:21.236Z,1.90
2023-03-26T13:46:00.396Z,2.77
2023-03-26T13:48:34.059Z,2.17
2023-03-26T13:51:12.406Z,2.30
2023-03-26T13:53:48.590Z,2.10
2023-03-26T13:56:23.825Z,2.37
2023-03-26T13:59:00.702Z,1.97
2023-03-26T14:01:41.261Z,2.33
2023-03-26T14:04:20.301Z,1.90
2023-03-26T14:06:57.672Z,2.10
2023-03-26T14:09:33.847Z,2.80
2023-03-26T14:12:35.100Z,2.00
2023-03-26T14:15:07.795Z,2.63
2023-03-26T14:17:45.174Z,1.70
2023-03-26T14:20:56.556Z,2.27
2023-03-26T14:23:52.007Z,2.47
2023-03-26T14:26:43.687Z,2.07
2023-03-26T14:29:33.097Z,2.00
2023-03-26T14:32:24.558Z,2.23
2023-03-26T14:35:23.909Z,2.47
2023-03-26T14:38:23.838Z,2.33
2023-03-26T14:41:00.522Z,1.90
2023-03-26T14:44:15.329Z,2.00
2023-03-26T14:47:15.789Z,2.40
2023-03-26T14:50:22.834Z,2.17
2023-03-26T14:53:01.257Z,2.50
2023-03-26T14:56:04.547Z,2.40
2023-03-26T14:59:12.547Z,2.33
2023-03-26T15:02:14.623Z,2.03
2023-03-26T15:05:00.956Z,2.90
2023-03-26T15:07:53.687Z,2.27
2023-03-26T15:10:53.881Z,2.30
2023-03-26T15:13:50.904Z,2.00
2023-03-26T15:16:57.125Z,2.47
2023-03-26T15:20:09.501Z,2.87
2023-03-26T15:23:17.923Z,2.30
2023-03-26T15:26:17.706Z,2.27
2023-03-26T15:29:06.462Z,1.87
2023-03-26T15:32:17.551Z,2.27
2023-03-26T15:35:22.195Z,2.37
2023-03-26T15:38:38.768Z,2.63
2023-03-26T15:41:19.656Z,2.10
2023-03-26T15:44:33.028Z,2.93
2023-03-26T15:47:36.555Z,2.37
2023-03-26T15:50:18.719Z,2.87
2023-03-26T15:52:54.828Z,2.10
2023-03-26T15:55:36.889Z,2.30
2023-03-26T15:58:14.007Z,2.73
2023-03-26T16:00:58.152Z,2.20
2023-03-26T16:03:36.164Z,2.33
2023-03-26T16:06:31.383Z,2.30
2023-03-26T16:09:17.224Z,2.63
2023-03-26T16:11:58.755Z,2.50
2023-03-26T16:14:45.964Z,2.37
2023-03-26T16:17:21.129Z,1.97
2023-03-26T16:19:54.924Z,2.07
2023-03-26T16:22:46.009Z,2.20
2023-03-26T16:25:29.066Z,2.23
2023-03-26T16:28:36.614Z,1.80
2023-03-26T16:31:39.230Z,2.23
2023-03-26T16:34:27.997Z,2.37
2023-03-26T16:37:01.563Z,1.93
2023-03-26T16:39:52.873Z,1.70
2023-03-26T16:42:35.888Z,2.13
2023-03-26T16:45:29.237Z,2.00
2023-03-26T16:48:13.414Z,2.20
2023-03-26T16:50:49.755Z,2.30
2023-03-26T16:53:30.244Z,1.73
2023-03-26T16:56:02.864Z,2.03
2023-03-26T16:58:40.141Z,1.90
2023-03-26T17:01:16.169Z,2.10
2023-03-26T17:03:58.434Z,2.40
2023-03-26T17:07:02.005Z,2.27
2023-03-26T17:09:43.013Z,2.10
2023-03-26T17:12:21.788Z,1.90
2023-03-26T17:15:11.268Z,1.60
2023-03-26T17:18:07.555Z,1.80
2023-03-26T17:20:46.848Z,1.63
2023-03-26T17:23:39.939Z,2.00
2023-03-26T17:26:19.668Z,1.60
2023-03-26T17:29:02.774Z,2.37
2023-03-26T17:31:43.185Z,2.07
2023-03-26T17:34:51.725Z,2.33
2023-03-26T17:37:41.221Z,2.20
2023-03-26T17:40:49.777Z,2.17
2023-03-26T17:43:38.934Z,2.20
2023-03-26T17:46:30.656Z,2.30
2023-03-26T17:49:04.840Z,2.57
2023-03-26T17:51:43.134Z,2.00
2023-03-26T17:54:25.618Z,1.93
2023-03-26T17:56:58.165Z,2.30
2023-03-26T17:59:32.063Z,2.30
2023-03-26T18:02:04.278Z,2.23
2023-03-26T18:04:37.855Z,1.83
2023-03-26T18:07:23.303Z,1.73
2023-03-26T18:10:29.000Z,2.17
2023-03-26T18:13:15.906Z,2.13
2023-03-26T18:16:07.391Z,2.00
2023-03-26T18:18:44.802Z,2.03
2023-03-26T18:21:20.807Z,2.00
2023-03-26T18:23:53.980Z,1.70
2023-03-26T18:26:41.303Z,2.07
2023-03-26T18:29:21.568Z,2.00
2023-03-26T18:31:55.336Z,1.90
2023-03-26T18:34:26.775Z,1.90
2023-03-26T18:37:26.225Z,1.83
2023-03-26T18:40:11.412Z,2.60
2023-03-26T18:42:47.078Z,1.90
2023-03-26T18:45:28.064Z,1.70
2023-03-26T18:48:00.727Z,2.10
2023-03-26T18:50:35.010Z,1.83
2023-03-26T18:53:05.486Z,1.40
2023-03-26T18:55:39.865Z,1.93
2023-03-26T18:58:27.196Z,1.63
2023-03-26T19:01:01.158Z,1.67
2023-03-26T19:03:35.785Z,1.70
2023-03-26T19:06:08.615Z,1.80
2023-03-26T19:08:41.051Z,1.43
2023-03-26T19:11:12.740Z,1.80
2023-03-26T19:13:46.612Z,1.90
2023-03-26T19:16:23.695Z,1.57
2023-03-26T19:18:54.277Z,2.10
2023-03-26T19:21:24.819Z,1.67
2023-03-26T19:23:55.766Z,1.90
2023-03-26T19:26:25.777Z,2.20
2023-03-26T19:29:01.013Z,1.80
2023-03-26T19:31:36.669Z,1.73
2023-03-26T19:34:21.822Z,2.30
2023-03-26T19:36:58.504Z,1.50
2023-03-26T19:39:37.817Z,2.83
2023-03-26T19:42:09.725Z,2.40
2023-03-26T19:44:43.511Z,1.90
2023-03-26T19:47:22.072Z,2.57
2023-03-26T19:49:57.367Z,2.40
2023-03-26T19:52:29.826Z,2.37
2023-03-26T19:55:04.706Z,2.37
2023-03-26T19:57:36.565Z,1.70
2023-03-26T20:00:13.928Z,2.30
2023-03-26T20:02:46.222Z,1.77
2023-03-26T20:05:23.131Z,1.87
2023-03-26T20:07:53.400Z,1.57
2023-03-26T20:10:23.480Z,2.20
2023-03-26T20:12:53.541Z,1.50
2023-03-26T20:15:28.953Z,1.40
2023-03-26T20:17:59.133Z,1.50
2023-03-26T20:20:30.908Z,1.97
2023-03-26T20:23:01.755Z,2.00
2023-03-26T20:25:35.709Z,1.70
2023-03-26T20:28:06.360Z,1.50
2023-03-26T20:30:39.337Z,1.40
2023-03-26T20:33:12.648Z,1.70
2023-03-26T20:35:44.004Z,1.87
2023-03-26T20:38:14.177Z,1.90
2023-03-26T20:40:44.970Z,1.70
2023-03-26T20:43:16.720Z,1.90
2023-03-26T20:45:50.237Z,1.90
2023-03-26T20:48:21.115Z,2.10
2023-03-26T20:50:51.710Z,1.90
2023-03-26T20:53:21.631Z,1.83
2023-03-26T20:55:51.908Z,1.43
2023-03-26T20:58:31.171Z,2.20
2023-03-26T21:01:06.677Z,2.00
2023-03-26T21:03:36.540Z,1.70
2023-03-26T21:06:10.618Z,1.83
2023-03-26T21:08:42.041Z,2.10
2023-03-26T21:11:26.333Z,2.20
2023-03-26T21:14:04.125Z,1.50
2023-03-26T21:16:38.193Z,2.23
2023-03-26T21:19:09.186Z,2.00
2023-03-26T21:21:57.835Z,1.83
2023-03-26T21:24:41.324Z,2.10
2023-03-26T21:27:19.814Z,1.90
2023-03-26T21:29:50.442Z,2.53
2023-03-26T21:32:25.460Z,1.77
2023-03-26T21:34:59.002Z,1.97
2023-03-26T21:37:30.562Z,2.27
2023-03-26T21:40:11.206Z,1.70
2023-03-26T21:42:41.923Z,1.77
2023-03-26T21:45:14.080Z,2.13
2023-03-26T21:47:48.932Z,1.80
2023-03-26T21:50:23.160Z,2.53
2023-03-26T21:52:54.214Z,2.50
2023-03-26T21:55:26.501Z,1.70
2023-03-26T21:58:13.567Z,1.80
2023-03-26T22:00:55.244Z,1.90
2023-03-26T22:03:31.431Z,1.93
2023-03-26T22:06:07.152Z,2.53
2023-03-26T22:08:41.725Z,1.87
2023-03-26T22:11:13.684Z,1.73
2023-03-26T22:13:43.880Z,2.10
2023-03-26T22:16:13.842Z,2.03
2023-03-26T22:18:46.666Z,1.70
2023-03-26T22:21:16.538Z,1.90
2023-03-26T22:23:52.883Z,1.60
2023-03-26T22:26:24.156Z,2.30
2023-03-26T22:28:54.455Z,1.70
2023-03-26T22:31:25.233Z,1.70
2023-03-26T22:33:58.626Z,2.20
2023-03-26T22:36:28.919Z,1.97
2023-03-26T22:38:58.960Z,1.50
2023-03-26T22:41:29.852Z,1.87
2023-03-26T22:44:12.896Z,1.47
2023-03-26T22:46:49.664Z,2.10
2023-03-26T22:49:22.270Z,1.60
2023-03-26T22:51:53.150Z,1.33
2023-03-26T22:54:22.932Z,2.00
2023-03-26T22:56:52.857Z,1.60
2023-03-26T22:59:22.663Z,1.60
2023-03-26T23:01:52.736Z,1.60
2023-03-26T23:04:32.238Z,1.60
2023-03-26T23:07:02.735Z,1.63
2023-03-26T23:09:32.784Z,1.80
2023-03-26T23:12:02.678Z,1.60
2023-03-26T23:14:32.907Z,1.43
2023-03-26T23:17:02.933Z,1.60
2023-03-26T23:19:37.285Z,1.73
2023-03-26T23:22:07.106Z,1.60
2023-03-26T23:24:38.021Z,1.80
2023-03-26T23:27:08.066Z,1.70
2023-03-26T23:29:38.165Z,1.73
2023-03-26T23:32:24.746Z,1.27
2023-03-26T23:34:58.400Z,1.20
2023-03-26T23:37:29.714Z,1.70
2023-03-26T23:40:00.664Z,1.70
2023-03-26T23:42:30.529Z,1.50
2023-03-26T23:45:00.487Z,1.57
2023-03-26T23:47:34.600Z,1.50
2023-03-26T23:50:08.428Z,1.77
2023-03-26T23:52:38.729Z,1.93
2023-03-26T23:55:09.602Z,2.10
2023-03-26T23:57:39.787Z,1.60
